ASA7004 PAKT-PASI
Flight info
| Callsign | ASA7004 |
|---|---|
| Flight time | 0h 36m |
| Altitude | 24000 |
| Route | UDENE3 FLIPS |
| Aircraft | B737/M-SDE2E3FGHIRWXY/LB1 |
Departure
| Time | 2026-04-20 00:17 |
|---|---|
| Airport | Ketchikan International Airport (PAKT) |
Arrival
| Time | 2026-04-20 00:53 |
|---|---|
| Airport | Sitka Rocky Gutierrez Airport (PASI) |
| Time | Latitude | Longitude | Altitude | Speed | Heading |
|---|---|---|---|---|---|
| 2026-04-19 23:59 | 55.35680 | -131.71111 | 99 ft | 0 kts | 44° |
| 2026-04-20 00:08 | 55.35679 | -131.71114 | 100 ft | 2 kts | 44° |
| 2026-04-20 00:09 | 55.35667 | -131.71134 | 99 ft | 2 kts | 44° |
| 2026-04-20 00:09 | 55.35656 | -131.71154 | 100 ft | 2 kts | 44° |
| 2026-04-20 00:09 | 55.35645 | -131.71172 | 99 ft | 2 kts | 22° |
| 2026-04-20 00:09 | 55.35632 | -131.71173 | 99 ft | 2 kts | 327° |
| 2026-04-20 00:10 | 55.35621 | -131.71159 | 100 ft | 2 kts | 316° |
| 2026-04-20 00:10 | 55.35619 | -131.71156 | 100 ft | 0 kts | 315° |
| 2026-04-20 00:11 | 55.35621 | -131.71160 | 100 ft | 2 kts | 315° |
| 2026-04-20 00:12 | 55.35641 | -131.71194 | 99 ft | 7 kts | 315° |
| 2026-04-20 00:12 | 55.35679 | -131.71262 | 100 ft | 8 kts | 315° |
| 2026-04-20 00:12 | 55.35719 | -131.71329 | 100 ft | 4 kts | 324° |
| 2026-04-20 00:12 | 55.35722 | -131.71354 | 100 ft | 3 kts | 211° |
| 2026-04-20 00:13 | 55.35707 | -131.71326 | 100 ft | 4 kts | 127° |
| 2026-04-20 00:13 | 55.35677 | -131.71261 | 100 ft | 10 kts | 131° |
| 2026-04-20 00:13 | 55.35615 | -131.71150 | 99 ft | 16 kts | 136° |
| 2026-04-20 00:13 | 55.35523 | -131.70993 | 100 ft | 21 kts | 136° |
| 2026-04-20 00:14 | 55.35416 | -131.70813 | 101 ft | 21 kts | 136° |
| 2026-04-20 00:14 | 55.35312 | -131.70636 | 100 ft | 21 kts | 136° |
| 2026-04-20 00:14 | 55.35207 | -131.70471 | 101 ft | 20 kts | 139° |
| 2026-04-20 00:14 | 55.35105 | -131.70312 | 101 ft | 19 kts | 138° |
| 2026-04-20 00:15 | 55.35007 | -131.70157 | 102 ft | 19 kts | 138° |
| 2026-04-20 00:15 | 55.34935 | -131.70049 | 102 ft | 8 kts | 149° |
| 2026-04-20 00:15 | 55.34880 | -131.70046 | 102 ft | 8 kts | 206° |
| 2026-04-20 00:15 | 55.34839 | -131.70105 | 102 ft | 7 kts | 220° |
| 2026-04-20 00:16 | 55.34841 | -131.70151 | 102 ft | 4 kts | 314° |
| 2026-04-20 00:16 | 55.34913 | -131.70275 | 100 ft | 45 kts | 315° |
| 2026-04-20 00:16 | 55.35336 | -131.71002 | 98 ft | 122 kts | 315° |
| 2026-04-20 00:16 | 55.36073 | -131.72259 | 356 ft | 159 kts | 317° |
| 2026-04-20 00:17 | 55.36879 | -131.73673 | 1183 ft | 168 kts | 315° |
| 2026-04-20 00:17 | 55.37716 | -131.75159 | 2029 ft | 179 kts | 315° |
| 2026-04-20 00:17 | 55.38642 | -131.76794 | 2724 ft | 199 kts | 315° |
| 2026-04-20 00:17 | 55.39676 | -131.78601 | 3248 ft | 219 kts | 315° |
| 2026-04-20 00:18 | 55.40793 | -131.80527 | 3977 ft | 233 kts | 315° |
| 2026-04-20 00:18 | 55.42016 | -131.82635 | 4605 ft | 255 kts | 315° |
| 2026-04-20 00:18 | 55.43308 | -131.84845 | 5599 ft | 261 kts | 315° |
| 2026-04-20 00:18 | 55.44615 | -131.87078 | 6688 ft | 264 kts | 314° |
| 2026-04-20 00:19 | 55.45940 | -131.89340 | 7737 ft | 266 kts | 314° |
| 2026-04-20 00:19 | 55.47266 | -131.91615 | 8808 ft | 267 kts | 311° |
| 2026-04-20 00:19 | 55.48266 | -131.94338 | 9826 ft | 266 kts | 291° |
| 2026-04-20 00:19 | 55.48965 | -131.97401 | 10600 ft | 277 kts | 290° |
| 2026-04-20 00:20 | 55.49699 | -132.00737 | 10832 ft | 306 kts | 290° |
| 2026-04-20 00:20 | 55.50485 | -132.04329 | 11409 ft | 320 kts | 290° |
| 2026-04-20 00:20 | 55.51296 | -132.08023 | 12224 ft | 325 kts | 290° |
| 2026-04-20 00:20 | 55.52122 | -132.11769 | 13107 ft | 330 kts | 290° |
| 2026-04-20 00:21 | 55.52963 | -132.15577 | 13987 ft | 336 kts | 290° |
| 2026-04-20 00:21 | 55.53817 | -132.19440 | 14830 ft | 339 kts | 291° |
| 2026-04-20 00:21 | 55.54676 | -132.23327 | 15767 ft | 341 kts | 291° |
| 2026-04-20 00:21 | 55.55540 | -132.27236 | 16696 ft | 343 kts | 291° |
| 2026-04-20 00:22 | 55.56410 | -132.31181 | 17568 ft | 347 kts | 291° |
| 2026-04-20 00:22 | 55.57289 | -132.35173 | 18457 ft | 349 kts | 291° |
| 2026-04-20 00:22 | 55.58166 | -132.39161 | 19385 ft | 347 kts | 291° |
| 2026-04-20 00:22 | 55.59025 | -132.43071 | 20290 ft | 346 kts | 291° |
| 2026-04-20 00:23 | 55.59893 | -132.47038 | 21156 ft | 347 kts | 291° |
| 2026-04-20 00:23 | 55.60761 | -132.51010 | 22084 ft | 345 kts | 290° |
| 2026-04-20 00:23 | 55.61623 | -132.54966 | 23045 ft | 344 kts | 290° |
| 2026-04-20 00:23 | 55.62485 | -132.58925 | 23733 ft | 347 kts | 290° |
| 2026-04-20 00:24 | 55.63347 | -132.62892 | 24020 ft | 343 kts | 290° |
| 2026-04-20 00:24 | 55.64207 | -132.66855 | 24052 ft | 346 kts | 290° |
| 2026-04-20 00:24 | 55.65066 | -132.70823 | 24056 ft | 344 kts | 290° |
| 2026-04-20 00:24 | 55.65919 | -132.74773 | 24070 ft | 343 kts | 290° |
| 2026-04-20 00:25 | 55.66770 | -132.78713 | 24073 ft | 342 kts | 290° |
| 2026-04-20 00:25 | 55.67611 | -132.82619 | 24078 ft | 342 kts | 290° |
| 2026-04-20 00:25 | 55.68457 | -132.86557 | 24078 ft | 342 kts | 290° |
| 2026-04-20 00:25 | 55.69406 | -132.90418 | 24071 ft | 343 kts | 300° |
| 2026-04-20 00:26 | 55.70825 | -132.93820 | 24086 ft | 343 kts | 307° |
| 2026-04-20 00:26 | 55.72346 | -132.97093 | 24074 ft | 344 kts | 308° |
| 2026-04-20 00:26 | 55.73887 | -133.00340 | 24084 ft | 344 kts | 308° |
| 2026-04-20 00:26 | 55.75428 | -133.03591 | 24078 ft | 345 kts | 308° |
| 2026-04-20 00:27 | 55.76967 | -133.06859 | 24068 ft | 345 kts | 308° |
| 2026-04-20 00:27 | 55.78500 | -133.10138 | 24074 ft | 345 kts | 308° |
| 2026-04-20 00:27 | 55.80029 | -133.13430 | 24073 ft | 345 kts | 308° |
| 2026-04-20 00:27 | 55.81553 | -133.16726 | 24075 ft | 345 kts | 308° |
| 2026-04-20 00:28 | 55.83076 | -133.20030 | 24072 ft | 345 kts | 307° |
| 2026-04-20 00:28 | 55.84595 | -133.23337 | 24073 ft | 345 kts | 307° |
| 2026-04-20 00:28 | 55.86096 | -133.26610 | 24075 ft | 345 kts | 307° |
| 2026-04-20 00:28 | 55.87613 | -133.29923 | 24090 ft | 345 kts | 307° |
| 2026-04-20 00:29 | 55.89127 | -133.33233 | 24085 ft | 345 kts | 307° |
| 2026-04-20 00:29 | 55.90637 | -133.36543 | 24076 ft | 344 kts | 307° |
| 2026-04-20 00:29 | 55.92145 | -133.39853 | 24073 ft | 343 kts | 307° |
| 2026-04-20 00:29 | 55.93648 | -133.43156 | 24078 ft | 343 kts | 307° |
| 2026-04-20 00:30 | 55.95149 | -133.46457 | 24072 ft | 342 kts | 307° |
| 2026-04-20 00:30 | 55.96647 | -133.49760 | 24080 ft | 342 kts | 307° |
| 2026-04-20 00:30 | 55.98142 | -133.53057 | 24075 ft | 342 kts | 307° |
| 2026-04-20 00:30 | 55.99636 | -133.56361 | 24072 ft | 342 kts | 307° |
| 2026-04-20 00:31 | 56.01129 | -133.59665 | 23831 ft | 342 kts | 307° |
| 2026-04-20 00:31 | 56.02614 | -133.62953 | 23494 ft | 341 kts | 307° |
| 2026-04-20 00:31 | 56.04100 | -133.66248 | 23051 ft | 338 kts | 307° |
| 2026-04-20 00:31 | 56.05565 | -133.69501 | 22584 ft | 335 kts | 307° |
| 2026-04-20 00:32 | 56.07017 | -133.72729 | 22146 ft | 331 kts | 306° |
| 2026-04-20 00:32 | 56.08445 | -133.75908 | 21703 ft | 328 kts | 306° |
| 2026-04-20 00:32 | 56.09865 | -133.79075 | 21264 ft | 324 kts | 306° |
| 2026-04-20 00:32 | 56.11270 | -133.82213 | 20828 ft | 322 kts | 306° |
| 2026-04-20 00:33 | 56.12666 | -133.85333 | 20390 ft | 319 kts | 306° |
| 2026-04-20 00:33 | 56.14044 | -133.88419 | 19964 ft | 316 kts | 306° |
| 2026-04-20 00:33 | 56.15412 | -133.91487 | 19537 ft | 314 kts | 306° |
| 2026-04-20 00:33 | 56.16752 | -133.94494 | 19120 ft | 312 kts | 306° |
| 2026-04-20 00:34 | 56.18099 | -133.97528 | 18700 ft | 309 kts | 306° |
| 2026-04-20 00:34 | 56.19431 | -134.00546 | 18241 ft | 308 kts | 306° |
| 2026-04-20 00:34 | 56.20765 | -134.03548 | 17766 ft | 306 kts | 306° |
| 2026-04-20 00:34 | 56.22090 | -134.06531 | 17313 ft | 305 kts | 306° |
| 2026-04-20 00:35 | 56.23406 | -134.09496 | 16872 ft | 302 kts | 306° |
| 2026-04-20 00:35 | 56.24711 | -134.12442 | 16410 ft | 300 kts | 306° |
| 2026-04-20 00:35 | 56.25996 | -134.15391 | 15973 ft | 299 kts | 306° |
| 2026-04-20 00:35 | 56.27285 | -134.18313 | 15529 ft | 297 kts | 306° |
| 2026-04-20 00:36 | 56.28570 | -134.21208 | 15104 ft | 295 kts | 306° |
| 2026-04-20 00:36 | 56.29840 | -134.24091 | 14679 ft | 293 kts | 307° |
| 2026-04-20 00:36 | 56.31099 | -134.26954 | 14271 ft | 291 kts | 307° |
| 2026-04-20 00:36 | 56.32353 | -134.29806 | 13852 ft | 289 kts | 307° |
| 2026-04-20 00:37 | 56.33596 | -134.32637 | 13392 ft | 287 kts | 307° |
| 2026-04-20 00:37 | 56.34830 | -134.35450 | 12957 ft | 285 kts | 307° |
| 2026-04-20 00:37 | 56.36050 | -134.38237 | 12540 ft | 282 kts | 307° |
| 2026-04-20 00:37 | 56.37260 | -134.41004 | 12138 ft | 279 kts | 307° |
| 2026-04-20 00:38 | 56.38443 | -134.43714 | 11742 ft | 277 kts | 306° |
| 2026-04-20 00:38 | 56.39646 | -134.46472 | 11342 ft | 275 kts | 306° |
| 2026-04-20 00:38 | 56.40808 | -134.49140 | 10957 ft | 273 kts | 306° |
| 2026-04-20 00:38 | 56.41978 | -134.51831 | 10567 ft | 272 kts | 306° |
| 2026-04-20 00:39 | 56.43142 | -134.54509 | 10204 ft | 270 kts | 306° |
| 2026-04-20 00:39 | 56.44274 | -134.57115 | 10092 ft | 258 kts | 306° |
| 2026-04-20 00:39 | 56.45365 | -134.59629 | 9819 ft | 253 kts | 306° |
| 2026-04-20 00:39 | 56.46445 | -134.62123 | 9479 ft | 250 kts | 306° |
| 2026-04-20 00:40 | 56.47516 | -134.64595 | 9123 ft | 248 kts | 307° |
| 2026-04-20 00:40 | 56.48596 | -134.66983 | 8852 ft | 240 kts | 306° |
| 2026-04-20 00:40 | 56.49619 | -134.69356 | 8440 ft | 237 kts | 308° |
| 2026-04-20 00:40 | 56.50642 | -134.71640 | 8141 ft | 236 kts | 305° |
| 2026-04-20 00:41 | 56.51636 | -134.74033 | 7876 ft | 243 kts | 305° |
| 2026-04-20 00:41 | 56.52680 | -134.76526 | 7570 ft | 253 kts | 306° |
| 2026-04-20 00:41 | 56.53768 | -134.79085 | 7201 ft | 260 kts | 306° |
| 2026-04-20 00:41 | 56.54884 | -134.81692 | 6841 ft | 263 kts | 307° |
| 2026-04-20 00:42 | 56.56012 | -134.84318 | 6436 ft | 264 kts | 307° |
| 2026-04-20 00:42 | 56.57104 | -134.86969 | 6126 ft | 262 kts | 304° |
| 2026-04-20 00:42 | 56.58219 | -134.89578 | 5986 ft | 259 kts | 308° |
| 2026-04-20 00:42 | 56.59333 | -134.92125 | 5999 ft | 259 kts | 307° |
| 2026-04-20 00:43 | 56.60443 | -134.94705 | 6022 ft | 259 kts | 307° |
| 2026-04-20 00:43 | 56.61562 | -134.97313 | 5989 ft | 263 kts | 307° |
| 2026-04-20 00:43 | 56.62667 | -134.99898 | 5990 ft | 263 kts | 307° |
| 2026-04-20 00:43 | 56.63785 | -135.02520 | 5987 ft | 262 kts | 307° |
| 2026-04-20 00:44 | 56.64899 | -135.05134 | 5990 ft | 261 kts | 307° |
| 2026-04-20 00:44 | 56.66014 | -135.07748 | 5984 ft | 261 kts | 307° |
| 2026-04-20 00:44 | 56.67123 | -135.10366 | 5981 ft | 262 kts | 307° |
| 2026-04-20 00:44 | 56.68229 | -135.12992 | 5976 ft | 260 kts | 307° |
| 2026-04-20 00:45 | 56.69324 | -135.15574 | 5703 ft | 257 kts | 307° |
| 2026-04-20 00:45 | 56.70422 | -135.18164 | 5233 ft | 260 kts | 307° |
| 2026-04-20 00:45 | 56.71524 | -135.20767 | 4943 ft | 257 kts | 307° |
| 2026-04-20 00:45 | 56.72609 | -135.23333 | 4810 ft | 255 kts | 307° |
| 2026-04-20 00:46 | 56.73694 | -135.25907 | 4685 ft | 257 kts | 307° |
| 2026-04-20 00:46 | 56.74785 | -135.28495 | 4546 ft | 255 kts | 307° |
| 2026-04-20 00:46 | 56.75963 | -135.30813 | 4372 ft | 247 kts | 326° |
| 2026-04-20 00:46 | 56.77504 | -135.32081 | 4380 ft | 243 kts | 340° |
| 2026-04-20 00:47 | 56.79097 | -135.32994 | 4367 ft | 234 kts | 342° |
| 2026-04-20 00:47 | 56.80618 | -135.33828 | 4349 ft | 222 kts | 340° |
| 2026-04-20 00:47 | 56.82081 | -135.34644 | 4316 ft | 219 kts | 342° |
| 2026-04-20 00:47 | 56.83590 | -135.35503 | 3800 ft | 232 kts | 340° |
| 2026-04-20 00:48 | 56.85120 | -135.36378 | 3409 ft | 234 kts | 341° |
| 2026-04-20 00:48 | 56.86669 | -135.37266 | 2960 ft | 233 kts | 341° |
| 2026-04-20 00:48 | 56.88224 | -135.38094 | 2657 ft | 223 kts | 347° |
| 2026-04-20 00:48 | 56.89708 | -135.38535 | 2507 ft | 209 kts | 350° |
| 2026-04-20 00:49 | 56.91083 | -135.38893 | 2395 ft | 195 kts | 349° |
| 2026-04-20 00:49 | 56.92373 | -135.39236 | 2322 ft | 182 kts | 349° |
| 2026-04-20 00:49 | 56.93603 | -135.39572 | 2247 ft | 175 kts | 349° |
| 2026-04-20 00:49 | 56.94798 | -135.39653 | 2130 ft | 175 kts | 14° |
| 2026-04-20 00:50 | 56.95788 | -135.38391 | 2032 ft | 176 kts | 42° |
| 2026-04-20 00:50 | 56.96652 | -135.36849 | 1862 ft | 169 kts | 40° |
| 2026-04-20 00:50 | 56.97471 | -135.35391 | 1693 ft | 157 kts | 41° |
| 2026-04-20 00:50 | 56.98214 | -135.34063 | 1495 ft | 143 kts | 41° |
| 2026-04-20 00:51 | 56.98932 | -135.32784 | 1308 ft | 143 kts | 41° |
| 2026-04-20 00:51 | 56.99689 | -135.31621 | 1094 ft | 141 kts | 30° |
| 2026-04-20 00:51 | 57.00581 | -135.30987 | 869 ft | 135 kts | 4° |
| 2026-04-20 00:51 | 57.01506 | -135.31130 | 682 ft | 134 kts | 341° |
| 2026-04-20 00:52 | 57.02326 | -135.31897 | 515 ft | 132 kts | 320° |
| 2026-04-20 00:52 | 57.02979 | -135.33036 | 378 ft | 129 kts | 313° |
| 2026-04-20 00:52 | 57.03607 | -135.34180 | 179 ft | 125 kts | 312° |
| 2026-04-20 00:52 | 57.04219 | -135.35274 | 41 ft | 116 kts | 314° |
| 2026-04-20 00:53 | 57.04687 | -135.36120 | 35 ft | 68 kts | 315° |
| 2026-04-20 00:53 | 57.04999 | -135.36682 | 35 ft | 50 kts | 315° |
| 2026-04-20 00:53 | 57.05192 | -135.37031 | 38 ft | 28 kts | 315° |
| 2026-04-20 00:53 | 57.05301 | -135.37219 | 37 ft | 16 kts | 319° |
| 2026-04-20 00:54 | 57.05364 | -135.37231 | 38 ft | 9 kts | 37° |
| 2026-04-20 00:54 | 57.05394 | -135.37142 | 38 ft | 8 kts | 90° |
| 2026-04-20 00:54 | 57.05361 | -135.37057 | 38 ft | 8 kts | 133° |
| 2026-04-20 00:54 | 57.05317 | -135.36975 | 36 ft | 11 kts | 135° |
| 2026-04-20 00:55 | 57.05255 | -135.36863 | 37 ft | 14 kts | 135° |
| 2026-04-20 00:55 | 57.05221 | -135.36763 | 37 ft | 8 kts | 87° |
| 2026-04-20 00:55 | 57.05253 | -135.36687 | 37 ft | 7 kts | 45° |
| 2026-04-20 00:55 | 57.05269 | -135.36659 | 35 ft | 1 kts | 45° |
| 2026-04-20 00:56 | 57.05270 | -135.36656 | 36 ft | 0 kts | 45° |